Relevés horaires Bernina Hospiz (Suisse)


Relevés horaires à Bernina Hospiz - Jeudi 20 Sept. 2018
Heure UTC1 Température [°C] Vent [km/h] Hum. [%] Pres.4 [hPa] Visi. [Km] Nébu. [octa] Préc.5 [mm] Cond.
2m. Res. Ros. Dir.2 Vit. Moy. Raf.3
22:00 8.9 7.9 7.8 ESE 7.4 -- -- 93 850 -- -- -- --
21:00 8.9 8.9 8.2 SSE 3.7 -- 20.4 95 850(0.2/3h) -- -- -- --
20:00 8.2 6.3 6.3 ESE 11.1 -- -- 88 850 -- -- -- --
19:00 9.1 6.8 5.8 E 14.8 -- -- 80 850 -- -- -- --
18:00 10.3 8.1 4.2 E 16.7 -- 29.6 66 850(0.0/3h) -- -- -- --
17:00 11.0 8.8 3.0 ESE 18.5 -- -- 58 850 -- -- -- --
16:00 12.6 10.8 1.8 SE 18.5 -- -- 48 850 -- -- -- --
15:00 14.3 12.8 2.7 SE 20.4 -- 29.6 46 850(-0.7/3h) -- -- -- --
14:00 14.2 12.5 2.8 SSE 22.2 -- -- 46 850 -- -- -- --
13:00 14.5 13.2 1.3 SSE 18.5 -- -- 41 850 -- -- -- --
12:00 15.0 14.1 0.4 SSE 14.8 -- 24.1 37 850(-0.8/3h) -- -- -- --
11:00 14.8 14.2 1.0 SSE 11.1 -- -- 39 850 -- -- -- --
10:00 12.8 12.4 -1.6 NO 7.4 -- -- 37 850 -- -- -- --
09:00 11.8 10 -1.4 NNO 16.7 -- 24.1 40 850(0.2/3h) -- -- -- --
08:00 9.6 6.8 2.1 NO 20.4 -- -- 59 783.5 -- -- -- --
07:00 9.1 6.4 -0.6 NO 18.5 -- -- 51 850 -- -- -- --
06:00 6.8 3.7 2.4 NO 16.7 -- 25.9 73 850(0.1/3h) -- -- 0/12h
0/24h
--
05:00 6.2 3.3 3.0 NO 14.8 -- -- 80 850 -- -- -- --
04:00 6.6 4 2.7 NO 13.0 -- -- 76 850 -- -- -- --
03:00 7.3 4.4 2.4 NO 16.7 -- 18.5 71 850(-0.8/3h) -- -- -- --
02:00 6.8 4.6 3.3 NNO 11.1 -- -- 78 850 -- -- -- --
01:00 7.4 5.7 3.3 NNO 9.3 -- -- 75 850 -- -- -- --
00:00 7.4 5.7 4.3 NO 9.3 -- 24.1 81 850(-0.3/3h) -- -- 0/6h
--

1 Coordinated Universal Time. Actuellement il est 00:00 locale et 22:00 UTC.

2 Le vent souffle depuis la direction indiquée vers la direction oposée.

3 Les rafales max. sont disponible 40 min après l'heure du relevé.

4 Pour les stations d'altitude (plus de 600m) le géopotentiel du niveau le plus proche de la pression obligatoire est indiqué.

5 Les stations disposant d'un diffuseur peuvent indiquer "trace". Cela signifie que des précipitations ont touchés le sol mais que la quantité est inférieure à 0.1 mm.

Récapitulatif de la journée
Température [°C] Vent [km/h] Ensoleillement4 [h] Precipitations totale5 [mm] Pression [Hpa]
Min1 Max.2 Moy.3 Max. Min Max.
6.0 -- 0 29.6 0 h 0 min 0 783.5 850.0

1 Température minimale relevée entre 18:00 UTC la veille et 18:00 UTC le jour donné.

2 Température maximale relevée entre 06:00 UTC le jour donné et 06:00 UTC le lendemain.

3 Vent moyen de la journée basé sur les relevés horaires.

4 Ensoleillement en heures relevé entre 06:00 UTC la veille et 06:00 UTC le jour donné.

5 Précipitations totales tombées entre 06:00 UTC la jour donné et 06:00 UTC le lendemain.

Graphiques horaires